Flight Number: EUR1060 Duration: 7:00
Departure: Dubai Int'l (OMDB) at 04:30 Distance: 2959 Nm
Arrival: Gatwick Airport (EGKK) at 11:30 Equipment: B777

Weather Information
Dubai International Airport, United Arab Emirates (OMDB) 25-15N 055-20E 5M Oct 17, 2018 - 11:00 PM EDT / 2018.10.18 0300 UTC
Wind: from the E (100 degrees) at 3 MPH (3 KT) (direction variable):0
Visibility: greater than 7 mile(s):0 Temperature: 80 F (27 C) Dew Point: 59 F (15 C) Relative Humidity: 47% Pressure (altimeter): 29.88 in. Hg (1012 hPa)
ob: OMDB 180300Z 10003KT 040V120 CAVOK 27/15 Q1012 NOSIG cycle: 3
Sunrise: 02:21 Sunset: 13:46 (UTC)

London / Gatwick Airport, United Kingdom (EGKK) 51-09N 000-11W 0M Oct 17, 2018 - 10:50 PM EDT / 2018.10.18 0250 UTC
Wind: from the NNE (030 degrees) at 5 MPH (4 KT):0
Visibility: 4 mile(s):0 Temperature: 51 F (11 C) Dew Point: 50 F (10 C) Relative Humidity: 93% Pressure (altimeter): 30.27 in. Hg (1025 hPa)
ob: EGKK 180250Z 03004KT 7000 NSC 11/10 Q1025 cycle: 3
Sunrise: 06:33 Sunset: 16:57 (UTC)

TAF:2018/10/17 18:09 TAF EGKK 171655Z 1718/1824 02005KT 9999 SCT040 PROB30 TEMPO 1718/1723 6000 RA BKN007 PROB30 1803/1806 8000 PROB30 TEMPO 1806/1809 3000 BR BKN004

Previous Pireps for this route
Date Aircraft Flight time Fuel used Landing rate On time
2013-01-17B7777.141104940No
2013-02-02B7776.551106000Yes
2013-10-17B7778.231792230No
2013-12-26B77707.2487977-362No
2014-05-25B77708.1784347-388No
2014-09-20B7777.541220890Yes
2014-11-28B77707.0779217-342No
2015-05-23B74709.02166683-115Charter
2015-10-13B737645211-645Charter
2016-04-25B7778.151130No
2016-05-28B7776.541330000No
(pireps marked green are flown by you)

Route map